sensor_id;sensor_type;location;lat;lon;timestamp;pressure;altitude;pressure_sealevel;temperature;humidity
16094;BME280;8151;47.824;12.092;2024-03-23T00:54:15;95748.19;;;12.04;61.47
16094;BME280;8151;47.824;12.092;2024-03-23T00:56:42;95751.47;;;12.06;61.34
16094;BME280;8151;47.824;12.092;2024-03-23T00:59:09;95741.28;;;12.02;61.30
16094;BME280;8151;47.824;12.092;2024-03-23T01:01:36;95732.69;;;12.00;61.25
16094;BME280;8151;47.824;12.092;2024-03-23T01:04:03;95737.81;;;12.02;61.26
16094;BME280;8151;47.824;12.092;2024-03-23T01:06:30;95728.00;;;12.02;61.31
16094;BME280;8151;47.824;12.092;2024-03-23T01:08:57;95727.75;;;11.97;61.08
16094;BME280;8151;47.824;12.092;2024-03-23T01:11:25;95720.22;;;11.94;61.31
16094;BME280;8151;47.824;12.092;2024-03-23T01:13:53;95706.69;;;11.89;61.45
16094;BME280;8151;47.824;12.092;2024-03-23T01:16:21;95713.19;;;11.87;61.47
16094;BME280;8151;47.824;12.092;2024-03-23T01:18:47;95708.63;;;11.80;61.63
16094;BME280;8151;47.824;12.092;2024-03-23T01:21:14;95717.78;;;11.78;61.78
16094;BME280;8151;47.824;12.092;2024-03-23T01:23:41;95718.81;;;11.77;61.82
16094;BME280;8151;47.824;12.092;2024-03-23T01:26:08;95709.84;;;11.78;61.59
16094;BME280;8151;47.824;12.092;2024-03-23T01:28:36;95702.91;;;11.77;61.81
16094;BME280;8151;47.824;12.092;2024-03-23T01:31:04;95705.75;;;11.75;61.49
16094;BME280;8151;47.824;12.092;2024-03-23T01:33:30;95707.19;;;11.78;61.50
16094;BME280;8151;47.824;12.092;2024-03-23T01:35:58;95702.91;;;11.77;61.65
16094;BME280;8151;47.824;12.092;2024-03-23T01:38:24;95694.97;;;11.77;61.83
16094;BME280;8151;47.824;12.092;2024-03-23T01:40:56;95693.31;;;11.76;61.64
16094;BME280;8151;47.824;12.092;2024-03-23T01:43:23;95685.72;;;11.73;61.63
16094;BME280;8151;47.824;12.092;2024-03-23T01:45:52;95687.75;;;11.71;61.96
16094;BME280;8151;47.824;12.092;2024-03-23T01:48:19;95691.44;;;11.70;61.84
16094;BME280;8151;47.824;12.092;2024-03-23T01:50:47;95689.59;;;11.70;61.81
16094;BME280;8151;47.824;12.092;2024-03-23T01:53:14;95681.03;;;11.68;61.76
16094;BME280;8151;47.824;12.092;2024-03-23T01:55:43;95697.94;;;11.67;61.62
16094;BME280;8151;47.824;12.092;2024-03-23T01:58:10;95681.44;;;11.65;62.00
16094;BME280;8151;47.824;12.092;2024-03-23T02:00:37;95681.78;;;11.62;61.65
16094;BME280;8151;47.824;12.092;2024-03-23T02:03:22;95676.06;;;11.58;62.15
16094;BME280;8151;47.824;12.092;2024-03-23T02:05:50;95669.31;;;11.56;62.00
16094;BME280;8151;47.824;12.092;2024-03-23T02:08:17;95665.81;;;11.55;62.21
16094;BME280;8151;47.824;12.092;2024-03-23T02:10:45;95668.69;;;11.54;62.34
16094;BME280;8151;47.824;12.092;2024-03-23T02:13:12;95658.28;;;11.52;62.24
16094;BME280;8151;47.824;12.092;2024-03-23T02:15:39;95666.41;;;11.51;62.10
16094;BME280;8151;47.824;12.092;2024-03-23T02:18:07;95669.47;;;11.48;62.12
16094;BME280;8151;47.824;12.092;2024-03-23T02:20:36;95651.09;;;11.46;62.34
16094;BME280;8151;47.824;12.092;2024-03-23T02:23:04;95652.09;;;11.45;62.38
16094;BME280;8151;47.824;12.092;2024-03-23T02:25:33;95657.78;;;11.42;62.36
16094;BME280;8151;47.824;12.092;2024-03-23T02:27:59;95646.56;;;11.40;62.67
16094;BME280;8151;47.824;12.092;2024-03-23T02:30:27;95644.09;;;11.38;62.75
16094;BME280;8151;47.824;12.092;2024-03-23T02:32:53;95646.94;;;11.37;62.70
16094;BME280;8151;47.824;12.092;2024-03-23T02:35:20;95655.06;;;11.35;62.34
16094;BME280;8151;47.824;12.092;2024-03-23T02:37:47;95657.53;;;11.37;62.42
16094;BME280;8151;47.824;12.092;2024-03-23T02:40:17;95648.78;;;11.36;62.39
16094;BME280;8151;47.824;12.092;2024-03-23T02:42:43;95641.66;;;11.37;62.33
16094;BME280;8151;47.824;12.092;2024-03-23T02:45:11;95649.59;;;11.37;62.45
16094;BME280;8151;47.824;12.092;2024-03-23T02:47:37;95636.34;;;11.37;61.97
16094;BME280;8151;47.824;12.092;2024-03-23T02:50:05;95633.69;;;11.37;62.34
16094;BME280;8151;47.824;12.092;2024-03-23T02:52:32;95631.22;;;11.35;61.97
16094;BME280;8151;47.824;12.092;2024-03-23T02:54:59;95633.88;;;11.35;61.88
16094;BME280;8151;47.824;12.092;2024-03-23T02:57:29;95622.66;;;11.33;62.24
16094;BME280;8151;47.824;12.092;2024-03-23T02:59:57;95623.47;;;11.34;61.74
16094;BME280;8151;47.824;12.092;2024-03-23T03:02:23;95626.97;;;11.34;61.74
16094;BME280;8151;47.824;12.092;2024-03-23T03:04:50;95627.16;;;11.33;61.60
16094;BME280;8151;47.824;12.092;2024-03-23T03:07:17;95618.56;;;11.31;61.81
16094;BME280;8151;47.824;12.092;2024-03-23T03:09:44;95613.03;;;11.26;61.89
16094;BME280;8151;47.824;12.092;2024-03-23T03:12:11;95615.41;;;11.20;61.91
16094;BME280;8151;47.824;12.092;2024-03-23T03:14:39;95611.31;;;11.18;62.09
16094;BME280;8151;47.824;12.092;2024-03-23T03:17:06;95618.00;;;11.14;62.00
16094;BME280;8151;47.824;12.092;2024-03-23T03:19:33;95599.03;;;11.10;62.33
16094;BME280;8151;47.824;12.092;2024-03-23T03:22:00;95609.19;;;11.07;62.50
16094;BME280;8151;47.824;12.092;2024-03-23T03:24:27;95607.75;;;11.04;62.07
16094;BME280;8151;47.824;12.092;2024-03-23T03:26:54;95602.00;;;11.00;62.55
16094;BME280;8151;47.824;12.092;2024-03-23T03:29:21;95603.41;;;10.96;62.28
16094;BME280;8151;47.824;12.092;2024-03-23T03:31:49;95603.59;;;10.95;62.59
16094;BME280;8151;47.824;12.092;2024-03-23T03:34:17;95599.50;;;10.92;62.34
16094;BME280;8151;47.824;12.092;2024-03-23T03:36:43;95594.38;;;10.91;62.39
16094;BME280;8151;47.824;12.092;2024-03-23T03:39:11;95606.34;;;10.87;62.84
16094;BME280;8151;47.824;12.092;2024-03-23T03:41:38;95589.41;;;10.81;62.65
16094;BME280;8151;47.824;12.092;2024-03-23T03:44:06;95581.88;;;10.78;63.15
16094;BME280;8151;47.824;12.092;2024-03-23T03:46:32;95581.59;;;10.73;63.18
16094;BME280;8151;47.824;12.092;2024-03-23T03:49:01;95580.53;;;10.67;63.41
16094;BME280;8151;47.824;12.092;2024-03-23T03:51:27;95571.31;;;10.63;63.21
16094;BME280;8151;47.824;12.092;2024-03-23T03:53:55;95571.06;;;10.58;63.62
16094;BME280;8151;47.824;12.092;2024-03-23T03:56:22;95567.78;;;10.56;63.99
16094;BME280;8151;47.824;12.092;2024-03-23T03:58:49;95566.34;;;10.53;63.77
16094;BME280;8151;47.824;12.092;2024-03-23T04:01:15;95557.59;;;10.53;63.54
16094;BME280;8151;47.824;12.092;2024-03-23T04:03:43;95554.09;;;10.52;63.59
16094;BME280;8151;47.824;12.092;2024-03-23T04:06:11;95552.31;;;10.53;63.40
16094;BME280;8151;47.824;12.092;2024-03-23T04:08:38;95562.88;;;10.53;63.29
16094;BME280;8151;47.824;12.092;2024-03-23T04:11:05;95554.94;;;10.53;62.93
16094;BME280;8151;47.824;12.092;2024-03-23T04:13:32;95560.03;;;10.54;62.92
16094;BME280;8151;47.824;12.092;2024-03-23T04:16:00;95550.91;;;10.57;63.08
16094;BME280;8151;47.824;12.092;2024-03-23T04:18:27;95550.91;;;10.57;62.98
16094;BME280;8151;47.824;12.092;2024-03-23T04:20:54;95549.28;;;10.56;62.86
16094;BME280;8151;47.824;12.092;2024-03-23T04:23:22;95537.88;;;10.55;62.78
16094;BME280;8151;47.824;12.092;2024-03-23T04:25:49;95550.09;;;10.56;63.20
16094;BME280;8151;47.824;12.092;2024-03-23T04:28:18;95537.69;;;10.57;62.60
16094;BME280;8151;47.824;12.092;2024-03-23T04:30:44;95534.84;;;10.58;63.07
16094;BME280;8151;47.824;12.092;2024-03-23T04:33:11;95533.84;;;10.59;62.90
16094;BME280;8151;47.824;12.092;2024-03-23T04:35:38;95528.75;;;10.58;62.34
16094;BME280;8151;47.824;12.092;2024-03-23T04:38:05;95539.09;;;10.53;62.30
16094;BME280;8151;47.824;12.092;2024-03-23T04:40:34;95524.78;;;10.47;62.71
16094;BME280;8151;47.824;12.092;2024-03-23T04:43:01;95520.66;;;10.44;63.43
16094;BME280;8151;47.824;12.092;2024-03-23T04:45:30;95519.84;;;10.44;63.12
16094;BME280;8151;47.824;12.092;2024-03-23T04:47:58;95525.50;;;10.41;62.61
16094;BME280;8151;47.824;12.092;2024-03-23T04:50:25;95517.78;;;10.39;62.87
16094;BME280;8151;47.824;12.092;2024-03-23T04:52:52;95504.75;;;10.38;62.85
16094;BME280;8151;47.824;12.092;2024-03-23T04:55:20;95501.47;;;10.36;62.59
16094;BME280;8151;47.824;12.092;2024-03-23T04:57:50;95496.72;;;10.31;63.20
16094;BME280;8151;47.824;12.092;2024-03-23T05:00:17;95497.09;;;10.28;63.14
16094;BME280;8151;47.824;12.092;2024-03-23T05:02:45;95501.56;;;10.28;62.79
16094;BME280;8151;47.824;12.092;2024-03-23T05:05:12;95488.13;;;10.29;63.12
16094;BME280;8151;47.824;12.092;2024-03-23T05:07:39;95494.44;;;10.28;62.48
16094;BME280;8151;47.824;12.092;2024-03-23T05:10:09;95486.53;;;10.28;63.00
16094;BME280;8151;47.824;12.092;2024-03-23T05:12:37;95473.31;;;10.28;62.97
16094;BME280;8151;47.824;12.092;2024-03-23T05:15:06;95458.44;;;10.27;63.03
16094;BME280;8151;47.824;12.092;2024-03-23T05:17:34;95462.09;;;10.26;63.02
16094;BME280;8151;47.824;12.092;2024-03-23T05:20:02;95459.00;;;10.22;63.23
16094;BME280;8151;47.824;12.092;2024-03-23T05:22:29;95453.91;;;10.21;62.86
16094;BME280;8151;47.824;12.092;2024-03-23T05:24:57;95453.09;;;10.20;62.77
16094;BME280;8151;47.824;12.092;2024-03-23T05:27:23;95452.81;;;10.15;62.68
16094;BME280;8151;47.824;12.092;2024-03-23T05:29:51;95453.00;;;10.14;62.86
16094;BME280;8151;47.824;12.092;2024-03-23T05:32:18;95444.44;;;10.12;63.01
16094;BME280;8151;47.824;12.092;2024-03-23T05:34:46;95444.03;;;10.08;62.89
16094;BME280;8151;47.824;12.092;2024-03-23T05:37:13;95438.94;;;10.07;63.79
16094;BME280;8151;47.824;12.092;2024-03-23T05:39:40;95446.00;;;10.06;63.40
16094;BME280;8151;47.824;12.092;2024-03-23T05:42:07;95434.00;;;10.03;63.05
16094;BME280;8151;47.824;12.092;2024-03-23T05:44:34;95424.47;;;10.02;63.62
16094;BME280;8151;47.824;12.092;2024-03-23T05:47:01;95422.00;;;10.01;63.55
16094;BME280;8151;47.824;12.092;2024-03-23T05:49:29;95432.56;;;10.01;63.50
16094;BME280;8151;47.824;12.092;2024-03-23T05:51:56;95424.63;;;10.01;63.62
16094;BME280;8151;47.824;12.092;2024-03-23T05:54:23;95425.44;;;10.01;63.49
16094;BME280;8151;47.824;12.092;2024-03-23T05:56:54;95419.16;;;10.02;63.39
16094;BME280;8151;47.824;12.092;2024-03-23T05:59:21;95429.53;;;10.04;63.41
16094;BME280;8151;47.824;12.092;2024-03-23T06:01:48;95420.59;;;10.05;63.58
16094;BME280;8151;47.824;12.092;2024-03-23T06:04:15;95400.91;;;10.08;63.47
16094;BME280;8151;47.824;12.092;2024-03-23T06:06:43;95400.91;;;10.08;63.50
16094;BME280;8151;47.824;12.092;2024-03-23T06:09:11;95405.81;;;10.11;63.05
16094;BME280;8151;47.824;12.092;2024-03-23T06:11:37;95393.06;;;10.14;63.06
16094;BME280;8151;47.824;12.092;2024-03-23T06:14:04;95397.75;;;10.19;62.91
16094;BME280;8151;47.824;12.092;2024-03-23T06:16:32;95391.09;;;10.23;62.73
16094;BME280;8151;47.824;12.092;2024-03-23T06:18:59;95392.97;;;10.29;62.83
16094;BME280;8151;47.824;12.092;2024-03-23T06:21:26;95381.69;;;10.35;62.87
16094;BME280;8151;47.824;12.092;2024-03-23T06:23:55;95366.84;;;10.41;62.52
16094;BME280;8151;47.824;12.092;2024-03-23T06:26:21;95385.63;;;10.46;62.57
16094;BME280;8151;47.824;12.092;2024-03-23T06:28:49;95365.72;;;10.50;61.74
16094;BME280;8151;47.824;12.092;2024-03-23T06:31:15;95357.22;;;10.55;62.05
16094;BME280;8151;47.824;12.092;2024-03-23T06:33:43;95377.78;;;10.59;61.80
16094;BME280;8151;47.824;12.092;2024-03-23T06:36:10;95386.16;;;10.63;61.77
16094;BME280;8151;47.824;12.092;2024-03-23T06:38:38;95368.28;;;10.65;61.63
16094;BME280;8151;47.824;12.092;2024-03-23T06:41:06;95355.66;;;10.67;61.81
16094;BME280;8151;47.824;12.092;2024-03-23T06:43:33;95349.78;;;10.72;61.57
16094;BME280;8151;47.824;12.092;2024-03-23T06:45:59;95355.13;;;10.78;61.34
16094;BME280;8151;47.824;12.092;2024-03-23T06:48:27;95382.84;;;10.82;60.85
16094;BME280;8151;47.824;12.092;2024-03-23T06:50:55;95349.25;;;10.83;61.26
16094;BME280;8151;47.824;12.092;2024-03-23T06:53:23;95340.09;;;10.86;61.01
16094;BME280;8151;47.824;12.092;2024-03-23T06:55:50;95339.91;;;10.87;60.75
16094;BME280;8151;47.824;12.092;2024-03-23T06:58:20;95345.44;;;10.92;61.28
16094;BME280;8151;47.824;12.092;2024-03-23T07:00:47;95331.41;;;10.98;60.73
16094;BME280;8151;47.824;12.092;2024-03-23T07:03:14;95319.84;;;11.06;60.62
16094;BME280;8151;47.824;12.092;2024-03-23T07:05:41;95323.34;;;11.13;60.27
16094;BME280;8151;47.824;12.092;2024-03-23T07:08:09;95313.19;;;11.17;60.47
16094;BME280;8151;47.824;12.092;2024-03-23T07:10:37;95310.94;;;11.20;59.99
16094;BME280;8151;47.824;12.092;2024-03-23T07:13:06;95318.09;;;11.27;60.11
16094;BME280;8151;47.824;12.092;2024-03-23T07:15:34;95305.69;;;11.34;59.75
16094;BME280;8151;47.824;12.092;2024-03-23T07:18:01;95309.56;;;11.38;59.89
16094;BME280;8151;47.824;12.092;2024-03-23T07:20:27;95315.72;;;11.45;59.73
16094;BME280;8151;47.824;12.092;2024-03-23T07:22:56;95304.53;;;11.50;59.46
16094;BME280;8151;47.824;12.092;2024-03-23T07:25:23;95287.84;;;11.56;59.28
16094;BME280;8151;47.824;12.092;2024-03-23T07:27:53;95277.25;;;11.62;59.26
16094;BME280;8151;47.824;12.092;2024-03-23T07:30:19;95294.78;;;11.70;59.01
16094;BME280;8151;47.824;12.092;2024-03-23T07:32:48;95270.97;;;11.77;59.00
16094;BME280;8151;47.824;12.092;2024-03-23T07:35:14;95263.41;;;11.80;58.75
16094;BME280;8151;47.824;12.092;2024-03-23T07:37:42;95253.00;;;11.86;58.25
16094;BME280;8151;47.824;12.092;2024-03-23T07:40:09;95244.88;;;11.94;57.91
16094;BME280;8151;47.824;12.092;2024-03-23T07:42:37;95223.69;;;12.00;57.79
16094;BME280;8151;47.824;12.092;2024-03-23T07:45:05;95235.09;;;12.08;57.59
16094;BME280;8151;47.824;12.092;2024-03-23T07:47:32;95219.38;;;12.13;57.36
16094;BME280;8151;47.824;12.092;2024-03-23T07:50:00;95225.91;;;12.17;57.08
16094;BME280;8151;47.824;12.092;2024-03-23T07:52:28;95219.78;;;12.23;57.12
16094;BME280;8151;47.824;12.092;2024-03-23T07:54:54;95233.63;;;12.25;56.88
16094;BME280;8151;47.824;12.092;2024-03-23T07:57:22;95232.00;;;12.31;56.79
16094;BME280;8151;47.824;12.092;2024-03-23T07:59:48;95234.66;;;12.37;56.72
16094;BME280;8151;47.824;12.092;2024-03-23T08:02:16;95260.75;;;12.47;56.40
16094;BME280;8151;47.824;12.092;2024-03-23T08:04:42;95252.16;;;12.52;56.31
16094;BME280;8151;47.824;12.092;2024-03-23T08:07:11;95256.03;;;12.63;55.95
16094;BME280;8151;47.824;12.092;2024-03-23T08:09:37;95256.19;;;12.74;55.62
16094;BME280;8151;47.824;12.092;2024-03-23T08:12:05;95257.38;;;12.85;55.46
16094;BME280;8151;47.824;12.092;2024-03-23T08:14:31;95266.28;;;13.04;55.13
16094;BME280;8151;47.824;12.092;2024-03-23T08:16:59;95290.16;;;13.17;54.89
16094;BME280;8151;47.824;12.092;2024-03-23T08:19:25;95306.69;;;13.19;55.05
16094;BME280;8151;47.824;12.092;2024-03-23T08:21:52;95326.72;;;13.15;55.10
16094;BME280;8151;47.824;12.092;2024-03-23T08:24:22;95342.25;;;13.12;55.22
16094;BME280;8151;47.824;12.092;2024-03-23T08:26:49;95350.22;;;13.18;55.16
16094;BME280;8151;47.824;12.092;2024-03-23T08:29:15;95350.59;;;13.29;54.78
16094;BME280;8151;47.824;12.092;2024-03-23T08:31:43;95388.16;;;13.39;54.44
16094;BME280;8151;47.824;12.092;2024-03-23T08:34:09;95366.91;;;13.46;54.39
16094;BME280;8151;47.824;12.092;2024-03-23T08:36:37;95385.06;;;13.55;54.20
16094;BME280;8151;47.824;12.092;2024-03-23T08:39:03;95379.09;;;13.67;53.96
16094;BME280;8151;47.824;12.092;2024-03-23T08:41:32;95398.66;;;13.79;53.59
16094;BME280;8151;47.824;12.092;2024-03-23T08:43:59;95401.84;;;13.94;53.41
16094;BME280;8151;47.824;12.092;2024-03-23T08:46:26;95396.19;;;14.16;53.30
16094;BME280;8151;47.824;12.092;2024-03-23T08:48:53;95401.09;;;14.44;52.97
16094;BME280;8151;47.824;12.092;2024-03-23T08:51:21;95410.94;;;14.75;52.82
16094;BME280;8151;47.824;12.092;2024-03-23T08:53:47;95422.91;;;14.91;53.06
16094;BME280;8151;47.824;12.092;2024-03-23T08:56:15;95412.84;;;14.93;54.00
16094;BME280;8151;47.824;12.092;2024-03-23T08:58:43;95435.81;;;14.88;54.38
16094;BME280;8151;47.824;12.092;2024-03-23T09:01:11;95435.72;;;14.76;55.06
16094;BME280;8151;47.824;12.092;2024-03-23T09:03:39;95475.53;;;14.64;55.44
16094;BME280;8151;47.824;12.092;2024-03-23T09:06:07;95471.72;;;14.47;56.02
16094;BME280;8151;47.824;12.092;2024-03-23T09:08:34;95486.72;;;14.34;56.26
16094;BME280;8151;47.824;12.092;2024-03-23T09:11:06;95493.34;;;14.25;56.33
16094;BME280;8151;47.824;12.092;2024-03-23T09:13:33;95497.28;;;14.16;56.41
16094;BME280;8151;47.824;12.092;2024-03-23T09:16:03;95483.97;;;14.16;56.86
16094;BME280;8151;47.824;12.092;2024-03-23T09:18:31;95477.41;;;14.18;56.80
16094;BME280;8151;47.824;12.092;2024-03-23T09:20:59;95525.69;;;14.22;56.66
16094;BME280;8151;47.824;12.092;2024-03-23T09:23:25;95503.63;;;14.15;56.44
16094;BME280;8151;47.824;12.092;2024-03-23T09:25:53;95512.28;;;14.04;56.18
16094;BME280;8151;47.824;12.092;2024-03-23T09:28:19;95539.53;;;13.92;56.36
16094;BME280;8151;47.824;12.092;2024-03-23T09:30:47;95538.50;;;13.80;56.22
16094;BME280;8151;47.824;12.092;2024-03-23T09:33:14;95526.69;;;13.69;56.47
16094;BME280;8151;47.824;12.092;2024-03-23T09:35:43;95530.78;;;13.58;56.75
16094;BME280;8151;47.824;12.092;2024-03-23T09:38:10;95535.13;;;13.46;56.79
16094;BME280;8151;47.824;12.092;2024-03-23T09:40:40;95538.41;;;13.35;56.88
16094;BME280;8151;47.824;12.092;2024-03-23T09:43:08;95533.47;;;13.25;57.15
16094;BME280;8151;47.824;12.092;2024-03-23T09:45:38;95536.13;;;13.18;57.25
16094;BME280;8151;47.824;12.092;2024-03-23T09:48:06;95539.59;;;13.12;57.28
16094;BME280;8151;47.824;12.092;2024-03-23T09:50:37;95553.28;;;13.03;57.55
16094;BME280;8151;47.824;12.092;2024-03-23T09:53:05;95561.88;;;12.91;57.84
16094;BME280;8151;47.824;12.092;2024-03-23T09:55:34;95561.63;;;12.86;58.11
16094;BME280;8151;47.824;12.092;2024-03-23T09:58:01;95578.38;;;12.80;58.61
16094;BME280;8151;47.824;12.092;2024-03-23T10:00:31;95592.84;;;12.71;58.83
16094;BME280;8151;47.824;12.092;2024-03-23T10:02:58;95599.72;;;12.52;60.05
16094;BME280;8151;47.824;12.092;2024-03-23T10:05:28;95612.88;;;12.25;61.47
16094;BME280;8151;47.824;12.092;2024-03-23T10:07:56;95604.25;;;12.10;62.20
16094;BME280;8151;47.824;12.092;2024-03-23T10:10:25;95612.66;;;11.85;63.36
16094;BME280;8151;47.824;12.092;2024-03-23T10:12:52;95624.66;;;11.53;64.38
16094;BME280;8151;47.824;12.092;2024-03-23T10:15:21;95628.78;;;11.34;65.75
16094;BME280;8151;47.824;12.092;2024-03-23T10:17:49;95618.31;;;11.26;66.22
16094;BME280;8151;47.824;12.092;2024-03-23T10:20:20;95648.97;;;11.13;66.44
16094;BME280;8151;47.824;12.092;2024-03-23T10:22:48;95642.34;;;11.02;67.47
16094;BME280;8151;47.824;12.092;2024-03-23T10:25:22;95650.03;;;10.97;67.86
16094;BME280;8151;47.824;12.092;2024-03-23T10:27:58;95663.59;;;10.88;68.73
16094;BME280;8151;47.824;12.092;2024-03-23T10:30:26;95682.94;;;10.73;68.77
16094;BME280;8151;47.824;12.092;2024-03-23T10:33:06;95706.41;;;10.47;70.03
16094;BME280;8151;47.824;12.092;2024-03-23T10:35:34;95704.13;;;10.29;70.27
16094;BME280;8151;47.824;12.092;2024-03-23T10:38:04;95716.81;;;10.18;69.81
16094;BME280;8151;47.824;12.092;2024-03-23T10:40:34;95719.69;;;9.94;70.18
16094;BME280;8151;47.824;12.092;2024-03-23T10:43:03;95738.22;;;9.71;70.29
16094;BME280;8151;47.824;12.092;2024-03-23T10:45:31;95742.69;;;9.47;70.68
16094;BME280;8151;47.824;12.092;2024-03-23T10:47:57;95764.22;;;9.36;71.37
16094;BME280;8151;47.824;12.092;2024-03-23T10:50:25;95748.34;;;9.21;70.93
16094;BME280;8151;47.824;12.092;2024-03-23T10:52:53;95759.94;;;9.12;71.00
16094;BME280;8151;47.824;12.092;2024-03-23T10:55:22;95750.25;;;9.04;71.05
16094;BME280;8151;47.824;12.092;2024-03-23T10:57:53;95757.19;;;8.97;70.88
16094;BME280;8151;47.824;12.092;2024-03-23T11:00:21;95751.19;;;8.80;71.50
16094;BME280;8151;47.824;12.092;2024-03-23T11:02:49;95754.47;;;8.82;71.45
16094;BME280;8151;47.824;12.092;2024-03-23T11:05:29;95752.66;;;8.82;71.52
16094;BME280;8151;47.824;12.092;2024-03-23T11:07:56;95754.19;;;8.77;71.55
16094;BME280;8151;47.824;12.092;2024-03-23T11:10:28;95768.50;;;8.74;71.68
16094;BME280;8151;47.824;12.092;2024-03-23T11:12:57;95766.41;;;8.70;71.98
16094;BME280;8151;47.824;12.092;2024-03-23T11:15:24;95774.16;;;8.71;71.80
16094;BME280;8151;47.824;12.092;2024-03-23T11:18:04;95782.44;;;8.60;72.18
16094;BME280;8151;47.824;12.092;2024-03-23T11:20:34;95792.84;;;8.53;71.89
16094;BME280;8151;47.824;12.092;2024-03-23T11:23:00;95800.91;;;8.52;72.27
16094;BME280;8151;47.824;12.092;2024-03-23T11:25:28;95793.69;;;8.45;72.57
16094;BME280;8151;47.824;12.092;2024-03-23T11:27:58;95783.13;;;8.45;72.75
16094;BME280;8151;47.824;12.092;2024-03-23T11:30:27;95796.97;;;8.47;72.70
16094;BME280;8151;47.824;12.092;2024-03-23T11:32:56;95796.31;;;8.45;72.83
16094;BME280;8151;47.824;12.092;2024-03-23T11:35:28;95799.09;;;8.52;72.88
16094;BME280;8151;47.824;12.092;2024-03-23T11:38:05;95802.41;;;8.46;72.75
16094;BME280;8151;47.824;12.092;2024-03-23T11:40:33;95812.28;;;8.44;73.22
16094;BME280;8151;47.824;12.092;2024-03-23T11:43:03;95799.59;;;8.31;73.20
16094;BME280;8151;47.824;12.092;2024-03-23T11:45:34;95794.03;;;8.26;73.45
16094;BME280;8151;47.824;12.092;2024-03-23T11:48:06;95798.16;;;8.20;73.31
16094;BME280;8151;47.824;12.092;2024-03-23T11:50:36;95797.81;;;8.23;73.11
16094;BME280;8151;47.824;12.092;2024-03-23T11:53:07;95806.19;;;8.27;72.87
16094;BME280;8151;47.824;12.092;2024-03-23T11:55:47;95805.88;;;8.22;73.37
16094;BME280;8151;47.824;12.092;2024-03-23T11:58:16;95813.13;;;8.20;73.23
16094;BME280;8151;47.824;12.092;2024-03-23T12:00:50;95812.47;;;8.26;73.09
16094;BME280;8151;47.824;12.092;2024-03-23T12:03:17;95819.53;;;8.34;72.93
16094;BME280;8151;47.824;12.092;2024-03-23T12:05:49;95804.91;;;8.15;73.02
16094;BME280;8151;47.824;12.092;2024-03-23T12:08:23;95820.03;;;8.04;73.70
16094;BME280;8151;47.824;12.092;2024-03-23T12:10:51;95812.16;;;8.21;73.61
16094;BME280;8151;47.824;12.092;2024-03-23T12:13:21;95823.19;;;8.24;73.61
16094;BME280;8151;47.824;12.092;2024-03-23T12:15:50;95824.97;;;8.16;73.71
16094;BME280;8151;47.824;12.092;2024-03-23T12:18:17;95821.22;;;8.02;74.18
16094;BME280;8151;47.824;12.092;2024-03-23T12:20:44;95808.38;;;7.99;74.47
16094;BME280;8151;47.824;12.092;2024-03-23T12:23:11;95806.72;;;8.06;74.31
16094;BME280;8151;47.824;12.092;2024-03-23T12:25:39;95790.09;;;8.05;73.62
16094;BME280;8151;47.824;12.092;2024-03-23T12:28:07;95798.16;;;7.96;73.93
16094;BME280;8151;47.824;12.092;2024-03-23T12:30:39;95780.25;;;7.91;74.08
16094;BME280;8151;47.824;12.092;2024-03-23T12:33:06;95780.56;;;7.88;73.96
16094;BME280;8151;47.824;12.092;2024-03-23T12:35:33;95776.94;;;7.89;73.58
16094;BME280;8151;47.824;12.092;2024-03-23T12:38:00;95773.81;;;7.85;73.68
16094;BME280;8151;47.824;12.092;2024-03-23T12:40:27;95783.50;;;7.85;73.34
16094;BME280;8151;47.824;12.092;2024-03-23T12:42:54;95767.06;;;7.91;73.14
16094;BME280;8151;47.824;12.092;2024-03-23T12:45:22;95764.41;;;7.99;72.39
16094;BME280;8151;47.824;12.092;2024-03-23T12:47:50;95765.06;;;8.01;72.68
16094;BME280;8151;47.824;12.092;2024-03-23T12:50:18;95753.38;;;8.04;72.33
16094;BME280;8151;47.824;12.092;2024-03-23T12:52:45;95755.69;;;8.07;71.92
16094;BME280;8151;47.824;12.092;2024-03-23T12:55:12;95770.84;;;8.05;72.19
16094;BME280;8151;47.824;12.092;2024-03-23T12:57:39;95790.59;;;8.09;71.65
16094;BME280;8151;47.824;12.092;2024-03-23T13:00:07;95779.88;;;8.11;71.80
16094;BME280;8151;47.824;12.092;2024-03-23T13:02:38;95781.50;;;8.12;71.78
16094;BME280;8151;47.824;12.092;2024-03-23T13:05:07;95786.31;;;8.16;71.67
16094;BME280;8151;47.824;12.092;2024-03-23T13:07:35;95779.50;;;8.22;71.70
16094;BME280;8151;47.824;12.092;2024-03-23T13:10:04;95783.81;;;8.23;71.25
16094;BME280;8151;47.824;12.092;2024-03-23T13:12:31;95786.78;;;8.28;71.24
16094;BME280;8151;47.824;12.092;2024-03-23T13:14:58;95792.03;;;8.28;71.48
16094;BME280;8151;47.824;12.092;2024-03-23T13:17:25;95797.47;;;8.26;71.42
16094;BME280;8151;47.824;12.092;2024-03-23T13:19:54;95801.94;;;8.26;71.68
16094;BME280;8151;47.824;12.092;2024-03-23T13:22:23;95777.56;;;8.24;71.28
16094;BME280;8151;47.824;12.092;2024-03-23T13:24:50;95781.19;;;8.23;71.58
16094;BME280;8151;47.824;12.092;2024-03-23T13:27:17;95783.50;;;8.26;71.32
16094;BME280;8151;47.824;12.092;2024-03-23T13:29:44;95796.00;;;8.24;71.29
16094;BME280;8151;47.824;12.092;2024-03-23T13:32:13;95812.47;;;8.26;71.19
16094;BME280;8151;47.824;12.092;2024-03-23T13:34:40;95801.94;;;8.26;71.00
16094;BME280;8151;47.824;12.092;2024-03-23T13:37:07;95804.19;;;8.37;70.55
16094;BME280;8151;47.824;12.092;2024-03-23T13:39:37;95802.41;;;8.46;70.58
16094;BME280;8151;47.824;12.092;2024-03-23T13:42:04;95794.63;;;8.53;70.27
16094;BME280;8151;47.824;12.092;2024-03-23T13:44:31;95787.84;;;8.58;70.62
16094;BME280;8151;47.824;12.092;2024-03-23T13:46:58;95781.09;;;8.64;70.30
16094;BME280;8151;47.824;12.092;2024-03-23T13:49:26;95774.63;;;8.66;70.00
16094;BME280;8151;47.824;12.092;2024-03-23T13:51:53;95781.41;;;8.69;70.02
16094;BME280;8151;47.824;12.092;2024-03-23T13:54:21;95799.72;;;8.62;69.96
16094;BME280;8151;47.824;12.092;2024-03-23T13:56:50;95809.97;;;8.49;69.65
16094;BME280;8151;47.824;12.092;2024-03-23T13:59:18;95830.75;;;8.36;69.66